sensor_id;sensor_type;location;lat;lon;timestamp;P1;durP1;ratioP1;P2;durP2;ratioP2
36551;SDS011;22559;54.176;12.102;2023-04-16T00:00:45;21.20;;;13.30;;
36551;SDS011;22559;54.176;12.102;2023-04-16T00:03:12;22.17;;;13.13;;
36551;SDS011;22559;54.176;12.102;2023-04-16T00:05:38;24.60;;;13.07;;
36551;SDS011;22559;54.176;12.102;2023-04-16T00:08:04;25.67;;;13.70;;
36551;SDS011;22559;54.176;12.102;2023-04-16T00:10:29;23.00;;;13.57;;
36551;SDS011;22559;54.176;12.102;2023-04-16T00:12:55;20.30;;;12.40;;
36551;SDS011;22559;54.176;12.102;2023-04-16T00:15:21;23.47;;;14.17;;
36551;SDS011;22559;54.176;12.102;2023-04-16T00:17:47;18.67;;;12.87;;
36551;SDS011;22559;54.176;12.102;2023-04-16T00:20:12;22.47;;;13.17;;
36551;SDS011;22559;54.176;12.102;2023-04-16T00:22:38;25.57;;;13.23;;
36551;SDS011;22559;54.176;12.102;2023-04-16T00:25:04;20.70;;;13.47;;
36551;SDS011;22559;54.176;12.102;2023-04-16T00:27:30;23.13;;;12.90;;
36551;SDS011;22559;54.176;12.102;2023-04-16T00:29:56;22.00;;;13.60;;
36551;SDS011;22559;54.176;12.102;2023-04-16T00:32:21;24.20;;;13.90;;
36551;SDS011;22559;54.176;12.102;2023-04-16T00:34:47;29.90;;;14.13;;
36551;SDS011;22559;54.176;12.102;2023-04-16T00:37:12;25.67;;;13.30;;
36551;SDS011;22559;54.176;12.102;2023-04-16T00:39:38;20.93;;;13.70;;
36551;SDS011;22559;54.176;12.102;2023-04-16T00:42:04;25.00;;;13.33;;
36551;SDS011;22559;54.176;12.102;2023-04-16T00:44:29;23.00;;;13.27;;
36551;SDS011;22559;54.176;12.102;2023-04-16T00:46:56;26.80;;;13.93;;
36551;SDS011;22559;54.176;12.102;2023-04-16T00:49:22;22.87;;;14.00;;
36551;SDS011;22559;54.176;12.102;2023-04-16T00:51:49;26.20;;;14.03;;
36551;SDS011;22559;54.176;12.102;2023-04-16T00:54:15;25.80;;;14.30;;
36551;SDS011;22559;54.176;12.102;2023-04-16T00:56:40;28.27;;;15.17;;
36551;SDS011;22559;54.176;12.102;2023-04-16T00:59:07;25.87;;;14.90;;
36551;SDS011;22559;54.176;12.102;2023-04-16T01:01:32;32.93;;;15.27;;
36551;SDS011;22559;54.176;12.102;2023-04-16T01:03:58;24.63;;;14.40;;
36551;SDS011;22559;54.176;12.102;2023-04-16T01:06:24;26.73;;;14.43;;
36551;SDS011;22559;54.176;12.102;2023-04-16T01:08:50;23.10;;;14.20;;
36551;SDS011;22559;54.176;12.102;2023-04-16T01:11:16;24.97;;;14.63;;
36551;SDS011;22559;54.176;12.102;2023-04-16T01:13:42;23.93;;;14.40;;
36551;SDS011;22559;54.176;12.102;2023-04-16T01:16:10;25.23;;;14.43;;
36551;SDS011;22559;54.176;12.102;2023-04-16T01:18:36;25.83;;;15.07;;
36551;SDS011;22559;54.176;12.102;2023-04-16T01:21:02;22.43;;;14.00;;
36551;SDS011;22559;54.176;12.102;2023-04-16T01:23:28;20.43;;;13.30;;
36551;SDS011;22559;54.176;12.102;2023-04-16T01:25:54;23.03;;;14.00;;
36551;SDS011;22559;54.176;12.102;2023-04-16T01:28:20;26.63;;;15.53;;
36551;SDS011;22559;54.176;12.102;2023-04-16T01:30:46;20.97;;;13.47;;
36551;SDS011;22559;54.176;12.102;2023-04-16T01:33:12;24.43;;;14.50;;
36551;SDS011;22559;54.176;12.102;2023-04-16T01:35:39;27.70;;;13.70;;
36551;SDS011;22559;54.176;12.102;2023-04-16T01:38:06;24.53;;;13.03;;
36551;SDS011;22559;54.176;12.102;2023-04-16T01:40:36;22.47;;;13.40;;
36551;SDS011;22559;54.176;12.102;2023-04-16T01:43:02;23.23;;;13.50;;
36551;SDS011;22559;54.176;12.102;2023-04-16T01:45:29;25.37;;;14.13;;
36551;SDS011;22559;54.176;12.102;2023-04-16T01:47:56;28.60;;;15.20;;
36551;SDS011;22559;54.176;12.102;2023-04-16T01:50:21;27.03;;;14.43;;
36551;SDS011;22559;54.176;12.102;2023-04-16T01:52:48;20.13;;;12.57;;
36551;SDS011;22559;54.176;12.102;2023-04-16T01:55:14;27.83;;;14.87;;
36551;SDS011;22559;54.176;12.102;2023-04-16T01:57:39;29.60;;;14.20;;
36551;SDS011;22559;54.176;12.102;2023-04-16T02:00:05;25.20;;;14.33;;
36551;SDS011;22559;54.176;12.102;2023-04-16T02:02:33;28.53;;;14.70;;
36551;SDS011;22559;54.176;12.102;2023-04-16T02:05:00;24.00;;;13.23;;
36551;SDS011;22559;54.176;12.102;2023-04-16T02:07:26;29.53;;;14.77;;
36551;SDS011;22559;54.176;12.102;2023-04-16T02:09:51;28.07;;;15.23;;
36551;SDS011;22559;54.176;12.102;2023-04-16T02:12:18;28.30;;;15.33;;
36551;SDS011;22559;54.176;12.102;2023-04-16T02:14:44;29.13;;;15.13;;
36551;SDS011;22559;54.176;12.102;2023-04-16T02:17:10;28.13;;;15.87;;
36551;SDS011;22559;54.176;12.102;2023-04-16T02:19:36;30.17;;;15.77;;
36551;SDS011;22559;54.176;12.102;2023-04-16T02:22:01;29.27;;;15.83;;
36551;SDS011;22559;54.176;12.102;2023-04-16T02:24:27;27.80;;;14.73;;
36551;SDS011;22559;54.176;12.102;2023-04-16T02:26:53;34.30;;;15.27;;
36551;SDS011;22559;54.176;12.102;2023-04-16T02:29:19;32.97;;;15.37;;
36551;SDS011;22559;54.176;12.102;2023-04-16T02:31:46;28.07;;;15.87;;
36551;SDS011;22559;54.176;12.102;2023-04-16T02:34:12;27.20;;;15.03;;
36551;SDS011;22559;54.176;12.102;2023-04-16T02:36:38;27.97;;;14.13;;
36551;SDS011;22559;54.176;12.102;2023-04-16T02:39:04;23.90;;;14.33;;
36551;SDS011;22559;54.176;12.102;2023-04-16T02:41:30;25.70;;;15.03;;
36551;SDS011;22559;54.176;12.102;2023-04-16T02:43:56;28.67;;;13.33;;
36551;SDS011;22559;54.176;12.102;2023-04-16T02:46:21;25.67;;;13.57;;
36551;SDS011;22559;54.176;12.102;2023-04-16T02:48:47;28.13;;;14.77;;
36551;SDS011;22559;54.176;12.102;2023-04-16T02:51:13;30.33;;;15.30;;
36551;SDS011;22559;54.176;12.102;2023-04-16T02:53:38;28.77;;;15.23;;
36551;SDS011;22559;54.176;12.102;2023-04-16T02:56:04;26.33;;;14.50;;
36551;SDS011;22559;54.176;12.102;2023-04-16T02:58:30;29.70;;;15.10;;
36551;SDS011;22559;54.176;12.102;2023-04-16T03:00:55;33.47;;;16.23;;
36551;SDS011;22559;54.176;12.102;2023-04-16T03:03:21;28.87;;;15.33;;
36551;SDS011;22559;54.176;12.102;2023-04-16T03:05:47;28.37;;;15.07;;
36551;SDS011;22559;54.176;12.102;2023-04-16T03:08:13;31.03;;;15.67;;
36551;SDS011;22559;54.176;12.102;2023-04-16T03:10:38;24.60;;;15.37;;
36551;SDS011;22559;54.176;12.102;2023-04-16T03:13:05;29.23;;;16.03;;
36551;SDS011;22559;54.176;12.102;2023-04-16T03:15:31;28.97;;;15.90;;
36551;SDS011;22559;54.176;12.102;2023-04-16T03:17:57;24.20;;;15.10;;
36551;SDS011;22559;54.176;12.102;2023-04-16T03:20:22;26.30;;;15.20;;
36551;SDS011;22559;54.176;12.102;2023-04-16T03:22:48;23.80;;;13.97;;
36551;SDS011;22559;54.176;12.102;2023-04-16T03:25:16;27.70;;;14.80;;
36551;SDS011;22559;54.176;12.102;2023-04-16T03:27:42;26.97;;;15.20;;
36551;SDS011;22559;54.176;12.102;2023-04-16T03:30:09;29.40;;;14.90;;
36551;SDS011;22559;54.176;12.102;2023-04-16T03:32:36;24.73;;;14.03;;
36551;SDS011;22559;54.176;12.102;2023-04-16T03:35:02;31.53;;;15.73;;
36551;SDS011;22559;54.176;12.102;2023-04-16T03:37:29;29.10;;;14.80;;
36551;SDS011;22559;54.176;12.102;2023-04-16T03:39:54;25.60;;;13.70;;
36551;SDS011;22559;54.176;12.102;2023-04-16T03:42:20;25.20;;;14.47;;
36551;SDS011;22559;54.176;12.102;2023-04-16T03:44:47;23.70;;;14.37;;
36551;SDS011;22559;54.176;12.102;2023-04-16T03:47:12;29.13;;;14.63;;
36551;SDS011;22559;54.176;12.102;2023-04-16T03:49:38;26.13;;;15.10;;
36551;SDS011;22559;54.176;12.102;2023-04-16T03:52:04;28.57;;;15.30;;
36551;SDS011;22559;54.176;12.102;2023-04-16T03:54:29;26.83;;;14.80;;
36551;SDS011;22559;54.176;12.102;2023-04-16T03:56:55;28.60;;;15.27;;
36551;SDS011;22559;54.176;12.102;2023-04-16T03:59:21;27.47;;;15.43;;
36551;SDS011;22559;54.176;12.102;2023-04-16T04:01:46;27.23;;;15.40;;
36551;SDS011;22559;54.176;12.102;2023-04-16T04:04:12;29.57;;;16.57;;
36551;SDS011;22559;54.176;12.102;2023-04-16T04:06:39;26.73;;;16.07;;
36551;SDS011;22559;54.176;12.102;2023-04-16T04:09:04;26.77;;;16.30;;
36551;SDS011;22559;54.176;12.102;2023-04-16T04:11:30;35.27;;;15.60;;
36551;SDS011;22559;54.176;12.102;2023-04-16T04:13:56;31.43;;;16.83;;
36551;SDS011;22559;54.176;12.102;2023-04-16T04:16:22;27.17;;;17.00;;
36551;SDS011;22559;54.176;12.102;2023-04-16T04:18:47;32.87;;;17.70;;
36551;SDS011;22559;54.176;12.102;2023-04-16T04:21:13;30.00;;;17.10;;
36551;SDS011;22559;54.176;12.102;2023-04-16T04:23:39;27.63;;;17.23;;
36551;SDS011;22559;54.176;12.102;2023-04-16T04:26:06;34.27;;;17.80;;
36551;SDS011;22559;54.176;12.102;2023-04-16T04:28:33;32.87;;;16.80;;
36551;SDS011;22559;54.176;12.102;2023-04-16T04:30:59;30.87;;;17.97;;
36551;SDS011;22559;54.176;12.102;2023-04-16T04:33:25;34.73;;;18.63;;
36551;SDS011;22559;54.176;12.102;2023-04-16T04:35:51;32.63;;;18.37;;
36551;SDS011;22559;54.176;12.102;2023-04-16T04:38:17;32.10;;;18.10;;
36551;SDS011;22559;54.176;12.102;2023-04-16T04:40:45;38.17;;;18.10;;
36551;SDS011;22559;54.176;12.102;2023-04-16T04:43:11;31.17;;;17.30;;
36551;SDS011;22559;54.176;12.102;2023-04-16T04:45:36;30.90;;;16.87;;
36551;SDS011;22559;54.176;12.102;2023-04-16T04:48:02;33.13;;;18.37;;
36551;SDS011;22559;54.176;12.102;2023-04-16T04:50:28;37.17;;;18.77;;
36551;SDS011;22559;54.176;12.102;2023-04-16T04:52:54;33.30;;;18.37;;
36551;SDS011;22559;54.176;12.102;2023-04-16T04:55:19;32.87;;;17.23;;
36551;SDS011;22559;54.176;12.102;2023-04-16T04:57:45;34.93;;;17.77;;
36551;SDS011;22559;54.176;12.102;2023-04-16T05:00:10;30.03;;;15.93;;
36551;SDS011;22559;54.176;12.102;2023-04-16T05:02:36;29.60;;;16.87;;
36551;SDS011;22559;54.176;12.102;2023-04-16T05:05:02;32.57;;;16.70;;
36551;SDS011;22559;54.176;12.102;2023-04-16T05:07:29;31.67;;;18.33;;
36551;SDS011;22559;54.176;12.102;2023-04-16T05:09:54;32.90;;;16.60;;
36551;SDS011;22559;54.176;12.102;2023-04-16T05:12:20;30.53;;;17.27;;
36551;SDS011;22559;54.176;12.102;2023-04-16T05:14:46;31.60;;;15.90;;
36551;SDS011;22559;54.176;12.102;2023-04-16T05:17:11;32.40;;;15.83;;
36551;SDS011;22559;54.176;12.102;2023-04-16T05:19:37;28.03;;;15.00;;
36551;SDS011;22559;54.176;12.102;2023-04-16T05:22:03;31.20;;;16.17;;
36551;SDS011;22559;54.176;12.102;2023-04-16T05:24:28;27.43;;;16.27;;
36551;SDS011;22559;54.176;12.102;2023-04-16T05:26:55;30.37;;;15.80;;
36551;SDS011;22559;54.176;12.102;2023-04-16T05:29:21;26.03;;;14.53;;
36551;SDS011;22559;54.176;12.102;2023-04-16T05:31:46;28.67;;;16.67;;
36551;SDS011;22559;54.176;12.102;2023-04-16T05:34:12;26.70;;;14.60;;
36551;SDS011;22559;54.176;12.102;2023-04-16T05:36:38;30.30;;;14.47;;
36551;SDS011;22559;54.176;12.102;2023-04-16T05:39:03;24.83;;;13.73;;
36551;SDS011;22559;54.176;12.102;2023-04-16T05:41:29;27.07;;;14.60;;
36551;SDS011;22559;54.176;12.102;2023-04-16T05:43:54;26.77;;;14.63;;
36551;SDS011;22559;54.176;12.102;2023-04-16T05:46:20;28.33;;;14.13;;
36551;SDS011;22559;54.176;12.102;2023-04-16T05:48:46;25.90;;;13.60;;
36551;SDS011;22559;54.176;12.102;2023-04-16T05:51:11;31.80;;;14.77;;
36551;SDS011;22559;54.176;12.102;2023-04-16T05:53:37;24.23;;;13.77;;
36551;SDS011;22559;54.176;12.102;2023-04-16T05:56:02;24.30;;;13.60;;
36551;SDS011;22559;54.176;12.102;2023-04-16T05:58:28;24.83;;;13.40;;
36551;SDS011;22559;54.176;12.102;2023-04-16T06:00:54;24.03;;;13.07;;
36551;SDS011;22559;54.176;12.102;2023-04-16T06:03:20;23.43;;;13.53;;
36551;SDS011;22559;54.176;12.102;2023-04-16T06:05:45;24.73;;;13.07;;
36551;SDS011;22559;54.176;12.102;2023-04-16T06:08:11;22.50;;;12.43;;
36551;SDS011;22559;54.176;12.102;2023-04-16T06:10:36;26.57;;;12.87;;
36551;SDS011;22559;54.176;12.102;2023-04-16T06:13:02;23.23;;;13.70;;
36551;SDS011;22559;54.176;12.102;2023-04-16T06:15:28;26.70;;;12.77;;
36551;SDS011;22559;54.176;12.102;2023-04-16T06:17:54;24.57;;;12.67;;
36551;SDS011;22559;54.176;12.102;2023-04-16T06:20:19;21.23;;;12.97;;
36551;SDS011;22559;54.176;12.102;2023-04-16T06:22:45;23.37;;;12.17;;
36551;SDS011;22559;54.176;12.102;2023-04-16T06:25:11;23.50;;;12.77;;
36551;SDS011;22559;54.176;12.102;2023-04-16T06:27:37;19.40;;;12.00;;
36551;SDS011;22559;54.176;12.102;2023-04-16T06:30:02;24.00;;;12.10;;
36551;SDS011;22559;54.176;12.102;2023-04-16T06:32:28;24.60;;;12.87;;
36551;SDS011;22559;54.176;12.102;2023-04-16T06:34:54;22.57;;;12.50;;
36551;SDS011;22559;54.176;12.102;2023-04-16T06:37:22;24.90;;;12.67;;
36551;SDS011;22559;54.176;12.102;2023-04-16T06:39:48;21.63;;;12.40;;
36551;SDS011;22559;54.176;12.102;2023-04-16T06:42:14;22.30;;;11.73;;
36551;SDS011;22559;54.176;12.102;2023-04-16T06:44:39;22.93;;;12.43;;
36551;SDS011;22559;54.176;12.102;2023-04-16T06:47:05;21.63;;;12.40;;
36551;SDS011;22559;54.176;12.102;2023-04-16T06:49:31;21.87;;;12.60;;
36551;SDS011;22559;54.176;12.102;2023-04-16T06:51:56;20.63;;;12.23;;
36551;SDS011;22559;54.176;12.102;2023-04-16T06:54:30;20.93;;;12.53;;
36551;SDS011;22559;54.176;12.102;2023-04-16T06:56:59;22.00;;;12.60;;
36551;SDS011;22559;54.176;12.102;2023-04-16T06:59:26;23.90;;;12.67;;
36551;SDS011;22559;54.176;12.102;2023-04-16T07:01:52;22.60;;;11.93;;
36551;SDS011;22559;54.176;12.102;2023-04-16T07:04:18;21.40;;;12.50;;
36551;SDS011;22559;54.176;12.102;2023-04-16T07:06:43;22.03;;;12.23;;
36551;SDS011;22559;54.176;12.102;2023-04-16T07:09:09;20.40;;;12.47;;
36551;SDS011;22559;54.176;12.102;2023-04-16T07:11:34;25.93;;;12.50;;
36551;SDS011;22559;54.176;12.102;2023-04-16T07:14:00;19.87;;;11.33;;
36551;SDS011;22559;54.176;12.102;2023-04-16T07:16:26;18.60;;;11.23;;
36551;SDS011;22559;54.176;12.102;2023-04-16T07:18:51;28.13;;;18.03;;
36551;SDS011;22559;54.176;12.102;2023-04-16T07:21:17;20.80;;;12.13;;
36551;SDS011;22559;54.176;12.102;2023-04-16T07:23:43;37.43;;;21.43;;
36551;SDS011;22559;54.176;12.102;2023-04-16T07:26:08;36.70;;;22.30;;
36551;SDS011;22559;54.176;12.102;2023-04-16T07:28:35;48.43;;;27.47;;
36551;SDS011;22559;54.176;12.102;2023-04-16T07:31:01;37.17;;;21.50;;
36551;SDS011;22559;54.176;12.102;2023-04-16T07:33:27;18.47;;;11.53;;
36551;SDS011;22559;54.176;12.102;2023-04-16T07:35:53;22.87;;;9.80;;
36551;SDS011;22559;54.176;12.102;2023-04-16T07:38:18;18.13;;;10.93;;
36551;SDS011;22559;54.176;12.102;2023-04-16T07:40:44;21.27;;;10.57;;
36551;SDS011;22559;54.176;12.102;2023-04-16T07:43:10;20.13;;;10.60;;
36551;SDS011;22559;54.176;12.102;2023-04-16T07:45:35;23.03;;;10.37;;
36551;SDS011;22559;54.176;12.102;2023-04-16T07:48:01;21.47;;;10.40;;
36551;SDS011;22559;54.176;12.102;2023-04-16T07:50:27;21.63;;;10.17;;
36551;SDS011;22559;54.176;12.102;2023-04-16T07:52:52;21.00;;;10.10;;
36551;SDS011;22559;54.176;12.102;2023-04-16T07:55:18;20.10;;;10.53;;
36551;SDS011;22559;54.176;12.102;2023-04-16T07:57:43;21.67;;;9.60;;
36551;SDS011;22559;54.176;12.102;2023-04-16T08:00:09;40.07;;;21.67;;
36551;SDS011;22559;54.176;12.102;2023-04-16T08:02:35;15.80;;;10.00;;
36551;SDS011;22559;54.176;12.102;2023-04-16T08:07:37;20.07;;;10.70;;
36551;SDS011;22559;54.176;12.102;2023-04-16T08:10:03;80.80;;;46.60;;
36551;SDS011;22559;54.176;12.102;2023-04-16T08:12:29;25.63;;;13.73;;
36551;SDS011;22559;54.176;12.102;2023-04-16T08:14:55;16.03;;;8.90;;
36551;SDS011;22559;54.176;12.102;2023-04-16T08:17:21;16.40;;;9.30;;
36551;SDS011;22559;54.176;12.102;2023-04-16T08:19:46;13.33;;;8.70;;
36551;SDS011;22559;54.176;12.102;2023-04-16T08:22:12;19.73;;;8.80;;
36551;SDS011;22559;54.176;12.102;2023-04-16T08:24:38;17.00;;;8.93;;
36551;SDS011;22559;54.176;12.102;2023-04-16T08:27:04;12.80;;;8.70;;
36551;SDS011;22559;54.176;12.102;2023-04-16T08:29:30;18.27;;;8.47;;
36551;SDS011;22559;54.176;12.102;2023-04-16T08:31:56;13.80;;;8.73;;
36551;SDS011;22559;54.176;12.102;2023-04-16T08:34:22;14.97;;;8.57;;
36551;SDS011;22559;54.176;12.102;2023-04-16T08:36:48;13.63;;;8.27;;
36551;SDS011;22559;54.176;12.102;2023-04-16T08:39:14;13.17;;;8.70;;
36551;SDS011;22559;54.176;12.102;2023-04-16T08:41:40;13.00;;;8.43;;
36551;SDS011;22559;54.176;12.102;2023-04-16T08:44:08;18.50;;;8.63;;
36551;SDS011;22559;54.176;12.102;2023-04-16T08:46:43;15.10;;;8.67;;
36551;SDS011;22559;54.176;12.102;2023-04-16T08:49:10;14.10;;;7.50;;
36551;SDS011;22559;54.176;12.102;2023-04-16T08:51:42;14.27;;;8.53;;
36551;SDS011;22559;54.176;12.102;2023-04-16T08:54:18;19.23;;;8.33;;
36551;SDS011;22559;54.176;12.102;2023-04-16T08:57:09;14.67;;;8.10;;
36551;SDS011;22559;54.176;12.102;2023-04-16T08:59:36;12.83;;;7.90;;
36551;SDS011;22559;54.176;12.102;2023-04-16T09:02:02;13.97;;;8.33;;
36551;SDS011;22559;54.176;12.102;2023-04-16T09:04:30;13.67;;;7.70;;
36551;SDS011;22559;54.176;12.102;2023-04-16T09:06:57;12.43;;;7.03;;
36551;SDS011;22559;54.176;12.102;2023-04-16T09:09:24;16.87;;;8.17;;
36551;SDS011;22559;54.176;12.102;2023-04-16T09:11:51;15.73;;;8.03;;
36551;SDS011;22559;54.176;12.102;2023-04-16T09:14:17;13.80;;;7.43;;
36551;SDS011;22559;54.176;12.102;2023-04-16T09:16:46;10.53;;;7.40;;
36551;SDS011;22559;54.176;12.102;2023-04-16T09:19:13;17.93;;;8.30;;
36551;SDS011;22559;54.176;12.102;2023-04-16T09:21:40;12.63;;;8.00;;
36551;SDS011;22559;54.176;12.102;2023-04-16T09:24:07;14.57;;;7.57;;
36551;SDS011;22559;54.176;12.102;2023-04-16T09:26:34;12.50;;;7.37;;
36551;SDS011;22559;54.176;12.102;2023-04-16T09:29:00;12.77;;;7.37;;
36551;SDS011;22559;54.176;12.102;2023-04-16T09:31:26;12.40;;;8.27;;
36551;SDS011;22559;54.176;12.102;2023-04-16T09:36:26;13.10;;;7.57;;
36551;SDS011;22559;54.176;12.102;2023-04-16T09:38:52;14.90;;;7.57;;
36551;SDS011;22559;54.176;12.102;2023-04-16T09:41:23;13.90;;;7.73;;
36551;SDS011;22559;54.176;12.102;2023-04-16T09:43:58;14.37;;;7.87;;
36551;SDS011;22559;54.176;12.102;2023-04-16T09:46:34;9.80;;;7.23;;
36551;SDS011;22559;54.176;12.102;2023-04-16T09:49:18;11.57;;;7.73;;
36551;SDS011;22559;54.176;12.102;2023-04-16T09:51:45;10.50;;;7.13;;
36551;SDS011;22559;54.176;12.102;2023-04-16T09:54:13;19.40;;;13.60;;
36551;SDS011;22559;54.176;12.102;2023-04-16T09:56:43;11.50;;;7.53;;
36551;SDS011;22559;54.176;12.102;2023-04-16T09:59:19;72.00;;;45.63;;
36551;SDS011;22559;54.176;12.102;2023-04-16T10:01:46;24.07;;;14.60;;
36551;SDS011;22559;54.176;12.102;2023-04-16T10:04:13;31.10;;;17.27;;
36551;SDS011;22559;54.176;12.102;2023-04-16T10:06:39;18.17;;;8.53;;
36551;SDS011;22559;54.176;12.102;2023-04-16T10:09:05;12.00;;;8.43;;
36551;SDS011;22559;54.176;12.102;2023-04-16T10:11:33;14.57;;;7.73;;
36551;SDS011;22559;54.176;12.102;2023-04-16T10:13:59;10.60;;;7.03;;
36551;SDS011;22559;54.176;12.102;2023-04-16T10:16:25;12.60;;;7.40;;
36551;SDS011;22559;54.176;12.102;2023-04-16T10:18:51;9.43;;;7.03;;
36551;SDS011;22559;54.176;12.102;2023-04-16T10:21:18;14.27;;;7.73;;
36551;SDS011;22559;54.176;12.102;2023-04-16T10:23:44;13.33;;;6.83;;
36551;SDS011;22559;54.176;12.102;2023-04-16T10:26:10;14.23;;;7.60;;
36551;SDS011;22559;54.176;12.102;2023-04-16T10:28:36;12.20;;;7.70;;
36551;SDS011;22559;54.176;12.102;2023-04-16T10:31:02;14.57;;;8.00;;
36551;SDS011;22559;54.176;12.102;2023-04-16T10:33:30;12.50;;;7.53;;
36551;SDS011;22559;54.176;12.102;2023-04-16T10:38:46;14.40;;;7.57;;
36551;SDS011;22559;54.176;12.102;2023-04-16T10:41:13;13.63;;;7.83;;
36551;SDS011;22559;54.176;12.102;2023-04-16T10:43:43;10.77;;;7.33;;
36551;SDS011;22559;54.176;12.102;2023-04-16T10:48:52;13.77;;;7.17;;
36551;SDS011;22559;54.176;12.102;2023-04-16T10:51:26;13.20;;;7.10;;
36551;SDS011;22559;54.176;12.102;2023-04-16T10:56:33;13.87;;;7.30;;
36551;SDS011;22559;54.176;12.102;2023-04-16T10:59:02;10.40;;;6.87;;
36551;SDS011;22559;54.176;12.102;2023-04-16T11:01:30;14.67;;;7.37;;
36551;SDS011;22559;54.176;12.102;2023-04-16T11:12:37;12.43;;;6.80;;
36551;SDS011;22559;54.176;12.102;2023-04-16T11:17:51;9.93;;;6.67;;
36551;SDS011;22559;54.176;12.102;2023-04-16T11:20:17;14.10;;;7.07;;
36551;SDS011;22559;54.176;12.102;2023-04-16T11:22:47;11.70;;;7.03;;
36551;SDS011;22559;54.176;12.102;2023-04-16T11:25:27;12.77;;;7.30;;
36551;SDS011;22559;54.176;12.102;2023-04-16T11:27:54;9.13;;;7.18;;
36551;SDS011;22559;54.176;12.102;2023-04-16T11:30:35;12.40;;;7.28;;
36551;SDS011;22559;54.176;12.102;2023-04-16T11:33:02;12.27;;;6.70;;
36551;SDS011;22559;54.176;12.102;2023-04-16T11:35:37;12.63;;;6.88;;
36551;SDS011;22559;54.176;12.102;2023-04-16T11:38:03;18.67;;;7.32;;
36551;SDS011;22559;54.176;12.102;2023-04-16T11:40:32;14.63;;;6.65;;
36551;SDS011;22559;54.176;12.102;2023-04-16T11:43:01;17.65;;;7.45;;
36551;SDS011;22559;54.176;12.102;2023-04-16T11:46:02;10.82;;;7.05;;
36551;SDS011;22559;54.176;12.102;2023-04-16T11:48:44;10.73;;;6.50;;
36551;SDS011;22559;54.176;12.102;2023-04-16T11:51:11;13.18;;;6.95;;
36551;SDS011;22559;54.176;12.102;2023-04-16T11:53:44;13.10;;;7.22;;
36551;SDS011;22559;54.176;12.102;2023-04-16T11:56:30;36.63;;;23.92;;
36551;SDS011;22559;54.176;12.102;2023-04-16T11:59:06;21.58;;;11.63;;
36551;SDS011;22559;54.176;12.102;2023-04-16T12:01:36;12.20;;;7.93;;
36551;SDS011;22559;54.176;12.102;2023-04-16T12:04:04;25.50;;;16.90;;
36551;SDS011;22559;54.176;12.102;2023-04-16T12:06:30;14.30;;;8.43;;
36551;SDS011;22559;54.176;12.102;2023-04-16T12:08:59;40.90;;;24.23;;
36551;SDS011;22559;54.176;12.102;2023-04-16T12:11:40;48.37;;;29.27;;
36551;SDS011;22559;54.176;12.102;2023-04-16T12:14:09;15.30;;;7.97;;
36551;SDS011;22559;54.176;12.102;2023-04-16T12:16:36;10.73;;;7.47;;
36551;SDS011;22559;54.176;12.102;2023-04-16T12:19:02;13.10;;;6.90;;
36551;SDS011;22559;54.176;12.102;2023-04-16T12:21:39;10.73;;;7.13;;
36551;SDS011;22559;54.176;12.102;2023-04-16T12:24:06;13.33;;;8.30;;
36551;SDS011;22559;54.176;12.102;2023-04-16T12:26:36;12.40;;;7.33;;
36551;SDS011;22559;54.176;12.102;2023-04-16T12:29:22;13.90;;;7.50;;
36551;SDS011;22559;54.176;12.102;2023-04-16T12:31:50;12.47;;;7.10;;
36551;SDS011;22559;54.176;12.102;2023-04-16T12:34:17;10.37;;;6.50;;
36551;SDS011;22559;54.176;12.102;2023-04-16T12:36:45;12.97;;;7.20;;
36551;SDS011;22559;54.176;12.102;2023-04-16T12:39:12;14.27;;;7.70;;
36551;SDS011;22559;54.176;12.102;2023-04-16T12:41:39;13.40;;;6.60;;
36551;SDS011;22559;54.176;12.102;2023-04-16T12:44:10;13.17;;;7.20;;
36551;SDS011;22559;54.176;12.102;2023-04-16T12:46:40;11.07;;;7.40;;
36551;SDS011;22559;54.176;12.102;2023-04-16T12:49:07;12.33;;;7.20;;
36551;SDS011;22559;54.176;12.102;2023-04-16T12:51:34;14.20;;;7.60;;
36551;SDS011;22559;54.176;12.102;2023-04-16T12:54:00;11.20;;;6.90;;
36551;SDS011;22559;54.176;12.102;2023-04-16T12:56:27;13.30;;;6.70;;
36551;SDS011;22559;54.176;12.102;2023-04-16T12:58:52;13.80;;;7.07;;
36551;SDS011;22559;54.176;12.102;2023-04-16T13:01:18;13.87;;;7.40;;
36551;SDS011;22559;54.176;12.102;2023-04-16T13:03:45;16.77;;;7.20;;
36551;SDS011;22559;54.176;12.102;2023-04-16T13:06:11;13.13;;;6.53;;
36551;SDS011;22559;54.176;12.102;2023-04-16T13:08:39;12.43;;;6.27;;
36551;SDS011;22559;54.176;12.102;2023-04-16T13:11:05;13.53;;;7.60;;
36551;SDS011;22559;54.176;12.102;2023-04-16T13:13:31;15.77;;;7.23;;
36551;SDS011;22559;54.176;12.102;2023-04-16T13:15:57;14.17;;;7.00;;
36551;SDS011;22559;54.176;12.102;2023-04-16T13:18:24;15.35;;;7.20;;
36551;SDS011;22559;54.176;12.102;2023-04-16T13:20:51;13.65;;;6.63;;
36551;SDS011;22559;54.176;12.102;2023-04-16T13:23:17;12.13;;;7.03;;
36551;SDS011;22559;54.176;12.102;2023-04-16T13:25:43;11.13;;;7.28;;
36551;SDS011;22559;54.176;12.102;2023-04-16T13:28:09;14.07;;;7.15;;
36551;SDS011;22559;54.176;12.102;2023-04-16T13:30:35;11.52;;;6.60;;
36551;SDS011;22559;54.176;12.102;2023-04-16T13:33:01;11.35;;;6.75;;
36551;SDS011;22559;54.176;12.102;2023-04-16T13:35:26;13.50;;;6.80;;
36551;SDS011;22559;54.176;12.102;2023-04-16T13:37:53;9.38;;;6.50;;
36551;SDS011;22559;54.176;12.102;2023-04-16T13:40:19;11.10;;;7.07;;
36551;SDS011;22559;54.176;12.102;2023-04-16T13:42:44;13.15;;;6.90;;
36551;SDS011;22559;54.176;12.102;2023-04-16T13:45:10;12.98;;;6.95;;
36551;SDS011;22559;54.176;12.102;2023-04-16T13:47:37;13.70;;;6.43;;
36551;SDS011;22559;54.176;12.102;2023-04-16T13:50:07;10.02;;;6.60;;
36551;SDS011;22559;54.176;12.102;2023-04-16T13:52:33;13.95;;;7.18;;
36551;SDS011;22559;54.176;12.102;2023-04-16T13:54:59;12.68;;;7.05;;
36551;SDS011;22559;54.176;12.102;2023-04-16T13:57:25;11.95;;;6.80;;
36551;SDS011;22559;54.176;12.102;2023-04-16T13:59:51;12.60;;;6.72;;
36551;SDS011;22559;54.176;12.102;2023-04-16T14:02:17;16.23;;;6.90;;
36551;SDS011;22559;54.176;12.102;2023-04-16T14:04:44;11.80;;;6.72;;
36551;SDS011;22559;54.176;12.102;2023-04-16T14:07:10;12.98;;;6.68;;
36551;SDS011;22559;54.176;12.102;2023-04-16T14:09:35;10.68;;;7.07;;
36551;SDS011;22559;54.176;12.102;2023-04-16T14:12:01;13.10;;;7.05;;
36551;SDS011;22559;54.176;12.102;2023-04-16T14:14:36;12.13;;;7.38;;
36551;SDS011;22559;54.176;12.102;2023-04-16T14:17:02;15.73;;;7.70;;
36551;SDS011;22559;54.176;12.102;2023-04-16T14:19:28;14.35;;;7.20;;
36551;SDS011;22559;54.176;12.102;2023-04-16T14:21:54;10.80;;;6.60;;
36551;SDS011;22559;54.176;12.102;2023-04-16T14:24:21;13.18;;;6.63;;
36551;SDS011;22559;54.176;12.102;2023-04-16T14:26:46;11.65;;;7.18;;
36551;SDS011;22559;54.176;12.102;2023-04-16T14:29:12;14.52;;;7.53;;
36551;SDS011;22559;54.176;12.102;2023-04-16T14:31:38;12.00;;;7.03;;
36551;SDS011;22559;54.176;12.102;2023-04-16T14:34:04;13.07;;;6.82;;
36551;SDS011;22559;54.176;12.102;2023-04-16T14:36:30;12.18;;;7.28;;